createdAt,value
2019-05-09T00:02:13.774Z,99.90
2019-05-09T00:04:44.689Z,99.90
2019-05-09T00:07:14.907Z,99.90
2019-05-09T00:09:45.094Z,99.90
2019-05-09T00:12:14.939Z,99.90
2019-05-09T00:14:45.114Z,99.90
2019-05-09T00:17:15.542Z,99.90
2019-05-09T00:19:45.764Z,99.90
2019-05-09T00:22:15.913Z,99.90
2019-05-09T00:24:46.517Z,99.90
2019-05-09T00:27:16.935Z,99.90
2019-05-09T00:29:48.309Z,99.90
2019-05-09T00:32:34.047Z,99.90
2019-05-09T00:35:15.993Z,99.90
2019-05-09T00:38:05.348Z,99.90
2019-05-09T00:40:35.148Z,99.90
2019-05-09T00:43:05.004Z,99.90
2019-05-09T00:45:54.287Z,99.90
2019-05-09T00:48:28.334Z,99.90
2019-05-09T00:50:58.105Z,99.90
2019-05-09T00:53:28.018Z,99.90
2019-05-09T00:55:57.854Z,99.90
2019-05-09T00:58:27.681Z,99.90
2019-05-09T01:00:57.990Z,99.90
2019-05-09T01:03:28.092Z,99.90
2019-05-09T01:05:57.917Z,99.90
2019-05-09T01:08:28.123Z,99.90
2019-05-09T01:11:09.389Z,99.90
2019-05-09T01:13:29.394Z,99.90
2019-05-09T01:15:59.227Z,99.90
2019-05-09T01:18:29.029Z,99.90
2019-05-09T01:20:59.282Z,99.90
2019-05-09T01:23:29.095Z,99.90
2019-05-09T01:25:58.933Z,99.90
2019-05-09T01:28:28.945Z,99.90
2019-05-09T01:30:58.792Z,99.90
2019-05-09T01:33:37.385Z,99.90
2019-05-09T01:36:07.238Z,99.90
2019-05-09T01:38:37.030Z,99.90
2019-05-09T01:41:06.911Z,99.90
2019-05-09T01:43:37.539Z,99.90
2019-05-09T01:46:07.382Z,99.90
2019-05-09T01:48:37.238Z,99.90
2019-05-09T01:51:07.034Z,99.90
2019-05-09T01:53:40.821Z,99.90
2019-05-09T01:56:11.107Z,99.90
2019-05-09T01:58:43.092Z,99.90
2019-05-09T02:01:13.644Z,99.90
2019-05-09T02:03:44.408Z,99.90
2019-05-09T02:06:14.292Z,99.90
2019-05-09T02:08:44.263Z,99.90
2019-05-09T02:11:14.494Z,99.90
2019-05-09T02:13:44.601Z,99.90
2019-05-09T02:16:34.904Z,99.90
2019-05-09T02:19:18.317Z,99.90
2019-05-09T02:21:48.093Z,99.90
2019-05-09T02:24:18.330Z,99.90
2019-05-09T02:26:48.644Z,99.90
2019-05-09T02:29:18.445Z,99.90
2019-05-09T02:31:48.300Z,99.90
2019-05-09T02:34:18.058Z,99.90
2019-05-09T02:36:49.609Z,99.90
2019-05-09T02:39:20.057Z,99.90
2019-05-09T02:42:03.511Z,99.90
2019-05-09T02:44:21.539Z,99.90
2019-05-09T02:47:00.486Z,99.90
2019-05-09T02:49:30.239Z,99.90
2019-05-09T02:52:00.567Z,99.90
2019-05-09T02:54:30.386Z,99.90
2019-05-09T02:57:00.165Z,99.90
2019-05-09T02:59:52.679Z,99.90
2019-05-09T03:02:54.250Z,99.90
2019-05-09T03:05:24.438Z,99.90
2019-05-09T03:07:54.443Z,99.90
2019-05-09T03:10:24.587Z,99.90
2019-05-09T03:12:55.243Z,99.90
2019-05-09T03:15:28.816Z,99.90
2019-05-09T03:17:59.832Z,99.90
2019-05-09T03:20:54.249Z,99.90
2019-05-09T03:23:24.110Z,99.90
2019-05-09T03:25:53.910Z,99.90
2019-05-09T03:28:34.804Z,99.90
2019-05-09T03:31:09.110Z,99.90
2019-05-09T03:33:40.604Z,99.90
2019-05-09T03:36:09.086Z,99.90
2019-05-09T03:38:39.910Z,99.90
2019-05-09T03:41:10.082Z,99.90
2019-05-09T03:43:39.907Z,99.90
2019-05-09T03:46:20.079Z,99.90
2019-05-09T03:48:53.024Z,99.90
2019-05-09T03:51:23.164Z,99.90
2019-05-09T03:53:52.974Z,99.90
2019-05-09T03:56:27.460Z,99.90
2019-05-09T03:58:57.874Z,99.90
2019-05-09T04:01:28.170Z,99.90
2019-05-09T04:03:58.478Z,99.90
2019-05-09T04:06:28.684Z,99.90
2019-05-09T04:08:58.710Z,99.90
2019-05-09T04:14:24.833Z,99.90
2019-05-09T04:17:07.884Z,99.90
2019-05-09T04:19:49.313Z,99.90
2019-05-09T04:22:30.470Z,99.90
2019-05-09T04:25:14.452Z,99.90
2019-05-09T04:27:57.722Z,99.90
2019-05-09T04:30:39.117Z,99.90
2019-05-09T04:33:20.503Z,99.90
2019-05-09T04:36:02.003Z,99.90
2019-05-09T04:38:43.696Z,99.90
2019-05-09T04:41:28.462Z,99.90
2019-05-09T04:44:16.808Z,99.90
2019-05-09T04:46:58.974Z,99.90
2019-05-09T04:49:41.136Z,99.90
2019-05-09T04:52:20.234Z,99.90
2019-05-09T04:55:02.081Z,99.90
2019-05-09T04:57:43.760Z,99.90
2019-05-09T05:03:19.553Z,99.90
2019-05-09T05:06:00.905Z,99.90
2019-05-09T05:08:42.215Z,99.90
2019-05-09T05:11:23.757Z,99.90
2019-05-09T05:14:09.077Z,99.90
2019-05-09T05:16:53.328Z,99.90
2019-05-09T05:19:35.068Z,99.90
2019-05-09T05:25:09.828Z,99.90
2019-05-09T05:27:52.000Z,99.90
2019-05-09T05:30:33.242Z,99.90
2019-05-09T05:33:40.046Z,99.90
2019-05-09T05:36:21.638Z,99.90
2019-05-09T05:39:02.515Z,99.90
2019-05-09T05:41:43.461Z,99.90
2019-05-09T05:44:25.150Z,99.90
2019-05-09T05:47:31.307Z,99.90
2019-05-09T05:50:12.791Z,99.90
2019-05-09T05:52:54.746Z,99.90
2019-05-09T05:55:37.922Z,99.90
2019-05-09T05:58:19.518Z,99.90
2019-05-09T06:01:04.366Z,99.90
2019-05-09T06:03:44.551Z,99.90
2019-05-09T06:06:27.459Z,99.90
2019-05-09T06:09:08.354Z,99.90
2019-05-09T06:11:49.801Z,99.90
2019-05-09T06:14:30.859Z,99.90
2019-05-09T06:17:11.969Z,99.90
2019-05-09T06:19:53.720Z,99.90
2019-05-09T06:22:35.091Z,99.90
2019-05-09T06:25:20.968Z,99.90
2019-05-09T06:28:02.201Z,99.90
2019-05-09T06:30:44.064Z,99.90
2019-05-09T06:33:25.147Z,99.90
2019-05-09T06:36:07.997Z,99.90
2019-05-09T06:38:49.427Z,99.90
2019-05-09T06:41:30.560Z,99.90
2019-05-09T06:47:31.801Z,99.90
2019-05-09T06:50:12.713Z,99.90
2019-05-09T06:52:53.772Z,99.90
2019-05-09T06:58:38.114Z,99.90
2019-05-09T07:01:37.678Z,99.90
2019-05-09T07:10:21.743Z,99.90
2019-05-09T07:15:45.121Z,99.90
2019-05-09T07:18:27.679Z,99.90
2019-05-09T07:21:08.965Z,99.90
2019-05-09T07:23:50.482Z,99.90
2019-05-09T07:26:32.852Z,99.90
2019-05-09T07:29:14.269Z,99.90
2019-05-09T07:34:58.504Z,99.90
2019-05-09T07:37:40.202Z,99.90
2019-05-09T07:40:21.728Z,99.90
2019-05-09T07:43:02.554Z,99.90
2019-05-09T07:46:02.815Z,99.90
2019-05-09T07:48:45.302Z,99.90
2019-05-09T07:51:27.608Z,99.90
2019-05-09T07:54:21.285Z,99.90
2019-05-09T07:56:51.155Z,99.90
2019-05-09T07:59:32.855Z,99.90
2019-05-09T08:02:14.523Z,99.90
2019-05-09T08:04:57.937Z,99.90
2019-05-09T08:07:38.793Z,99.90
2019-05-09T08:10:20.071Z,99.90
2019-05-09T08:13:01.746Z,99.90
2019-05-09T08:15:43.444Z,99.90
2019-05-09T08:18:25.453Z,99.90
2019-05-09T08:21:08.470Z,99.90
2019-05-09T08:23:51.183Z,98.20
2019-05-09T08:26:32.739Z,99.80
2019-05-09T08:29:14.094Z,99.50
2019-05-09T08:31:55.185Z,99.90
2019-05-09T08:34:37.818Z,97.60
2019-05-09T08:37:19.262Z,96.60
2019-05-09T08:40:00.940Z,95.80
2019-05-09T08:42:41.905Z,96.40
2019-05-09T08:45:27.578Z,95.50
2019-05-09T08:48:09.094Z,95.20
2019-05-09T08:50:52.930Z,95.50
2019-05-09T08:53:34.261Z,94.00
2019-05-09T08:56:17.665Z,92.60
2019-05-09T08:59:02.018Z,92.90
2019-05-09T09:02:08.306Z,92.80
2019-05-09T09:04:24.921Z,93.10
2019-05-09T09:07:08.179Z,95.10
2019-05-09T09:09:49.539Z,92.70
2019-05-09T09:12:34.395Z,95.00
2019-05-09T09:15:13.243Z,93.80
2019-05-09T09:17:54.894Z,92.70
2019-05-09T09:20:37.988Z,91.60
2019-05-09T09:23:19.188Z,93.00
2019-05-09T09:26:00.746Z,92.30
2019-05-09T09:28:42.722Z,92.00
2019-05-09T09:31:23.781Z,89.80
2019-05-09T09:34:04.572Z,91.40
2019-05-09T09:39:28.569Z,92.00
2019-05-09T09:42:10.485Z,93.20
2019-05-09T09:44:52.015Z,92.70
2019-05-09T09:47:33.717Z,92.40
2019-05-09T09:50:17.529Z,91.80
2019-05-09T09:52:58.864Z,92.40
2019-05-09T09:55:48.231Z,92.80
2019-05-09T09:58:37.960Z,92.20
2019-05-09T10:01:29.961Z,91.00
2019-05-09T10:04:23.707Z,91.40
2019-05-09T10:07:09.317Z,90.00
2019-05-09T10:09:58.531Z,92.60
2019-05-09T10:12:49.375Z,89.00
2019-05-09T10:15:58.755Z,89.90
2019-05-09T10:21:53.425Z,86.10
2019-05-09T10:24:42.437Z,87.20
2019-05-09T10:27:31.135Z,86.90
2019-05-09T10:30:40.178Z,90.30
2019-05-09T10:33:28.923Z,91.30
2019-05-09T10:36:09.887Z,90.00
2019-05-09T10:38:51.187Z,90.10
2019-05-09T10:41:32.677Z,87.50
2019-05-09T10:44:18.135Z,87.30
2019-05-09T10:47:27.314Z,86.30
2019-05-09T10:50:18.403Z,86.40
2019-05-09T10:53:08.006Z,87.20
2019-05-09T10:55:56.859Z,85.90
2019-05-09T10:58:48.014Z,88.70
2019-05-09T11:01:38.241Z,90.10
2019-05-09T11:04:28.610Z,90.40
2019-05-09T11:07:18.239Z,90.30
2019-05-09T11:10:24.068Z,90.80
2019-05-09T11:12:58.551Z,90.90
2019-05-09T11:15:48.510Z,92.00
2019-05-09T11:18:37.248Z,93.00
2019-05-09T11:21:28.541Z,94.10
2019-05-09T11:24:18.550Z,94.80
2019-05-09T11:27:08.524Z,95.60
2019-05-09T11:29:58.081Z,97.00
2019-05-09T11:32:48.118Z,98.90
2019-05-09T11:35:38.158Z,99.90
2019-05-09T11:38:34.376Z,99.90
2019-05-09T11:41:19.339Z,99.90
2019-05-09T11:44:08.880Z,99.90
2019-05-09T11:46:58.339Z,99.90
2019-05-09T11:49:49.364Z,99.90
2019-05-09T11:52:38.509Z,99.90
2019-05-09T11:55:35.407Z,99.90
2019-05-09T11:58:18.461Z,99.90
2019-05-09T12:01:08.203Z,99.90
2019-05-09T12:03:57.875Z,99.90
2019-05-09T12:06:49.358Z,99.90
2019-05-09T12:09:38.847Z,99.90
2019-05-09T12:12:28.306Z,99.90
2019-05-09T12:15:18.146Z,99.90
2019-05-09T12:18:10.962Z,99.90
2019-05-09T12:20:57.684Z,99.90
2019-05-09T12:23:48.839Z,99.90
2019-05-09T12:26:39.248Z,99.90
2019-05-09T12:29:29.266Z,99.90
2019-05-09T12:32:10.399Z,99.90
2019-05-09T12:34:51.814Z,98.30
2019-05-09T12:37:33.731Z,94.90
2019-05-09T12:40:15.223Z,94.30
2019-05-09T12:42:56.820Z,94.00
2019-05-09T12:45:38.766Z,93.40
2019-05-09T12:48:20.654Z,93.80
2019-05-09T12:51:02.004Z,93.70
2019-05-09T12:53:42.864Z,93.90
2019-05-09T12:56:24.062Z,94.60
2019-05-09T12:59:05.806Z,91.70
2019-05-09T13:01:49.264Z,91.80
2019-05-09T13:04:30.494Z,92.60
2019-05-09T13:07:11.641Z,90.20
2019-05-09T13:09:53.218Z,87.10
2019-05-09T13:12:23.233Z,87.60
2019-05-09T13:15:13.654Z,86.30
2019-05-09T13:18:02.509Z,83.00
2019-05-09T13:20:52.142Z,82.70
2019-05-09T13:23:41.374Z,81.00
2019-05-09T13:26:30.127Z,81.10
2019-05-09T13:29:00.728Z,80.90
2019-05-09T13:31:41.909Z,82.00
2019-05-09T13:34:23.793Z,82.40
2019-05-09T13:37:04.891Z,81.80
2019-05-09T13:39:47.578Z,82.40
2019-05-09T13:42:28.896Z,82.80
2019-05-09T13:45:10.128Z,81.40
2019-05-09T13:47:51.302Z,79.10
2019-05-09T13:50:32.674Z,78.70
2019-05-09T13:59:13.916Z,78.90
2019-05-09T14:01:55.280Z,79.50
2019-05-09T14:04:39.416Z,79.60
2019-05-09T14:07:19.770Z,80.30
2019-05-09T14:10:01.169Z,79.20
2019-05-09T14:12:42.733Z,81.20
2019-05-09T14:15:24.630Z,79.90
2019-05-09T14:18:08.150Z,80.20
2019-05-09T14:20:49.254Z,80.20
2019-05-09T14:23:35.792Z,80.00
2019-05-09T14:26:13.520Z,81.30
2019-05-09T14:28:55.041Z,80.90
2019-05-09T14:31:38.781Z,82.20
2019-05-09T14:34:19.844Z,83.30
2019-05-09T14:37:00.778Z,82.70
2019-05-09T14:39:54.900Z,81.40
2019-05-09T14:45:08.304Z,81.90
2019-05-09T14:47:49.131Z,80.80
2019-05-09T14:50:30.795Z,82.70
2019-05-09T14:53:12.145Z,81.70
2019-05-09T14:55:43.294Z,82.90
2019-05-09T14:58:33.373Z,81.90
2019-05-09T15:01:03.288Z,79.60
2019-05-09T15:03:52.002Z,78.80
2019-05-09T15:06:40.773Z,79.20
2019-05-09T15:09:29.923Z,79.30
2019-05-09T15:12:18.722Z,79.60
2019-05-09T15:15:08.583Z,80.80
2019-05-09T15:17:58.361Z,81.50
2019-05-09T15:20:48.297Z,82.90
2019-05-09T15:23:39.053Z,83.80
2019-05-09T15:26:27.742Z,83.80
2019-05-09T15:29:18.294Z,85.10
2019-05-09T15:32:04.635Z,86.60
2019-05-09T15:34:42.863Z,87.10
2019-05-09T15:37:24.196Z,89.10
2019-05-09T15:40:08.447Z,89.30
2019-05-09T15:42:48.566Z,89.50
2019-05-09T15:45:30.253Z,89.70
2019-05-09T15:48:18.985Z,90.80
2019-05-09T15:51:07.813Z,90.50
2019-05-09T15:53:57.770Z,91.40
2019-05-09T15:56:48.403Z,91.50
2019-05-09T15:59:39.050Z,91.60
2019-05-09T16:02:33.898Z,91.60
2019-05-09T16:05:21.463Z,92.10
2019-05-09T16:08:11.577Z,92.20
2019-05-09T16:11:00.644Z,92.30
2019-05-09T16:13:49.959Z,92.60
2019-05-09T16:16:38.728Z,92.60
2019-05-09T16:19:27.500Z,93.00
2019-05-09T16:22:18.778Z,93.70
2019-05-09T16:25:06.961Z,93.60
2019-05-09T16:27:55.713Z,93.60
2019-05-09T16:30:44.509Z,94.10
2019-05-09T16:33:27.929Z,93.50
2019-05-09T16:36:08.773Z,94.30
2019-05-09T16:38:50.326Z,94.50
2019-05-09T16:41:32.082Z,94.30
2019-05-09T16:44:13.018Z,94.30
2019-05-09T16:46:54.249Z,94.90
2019-05-09T16:49:25.969Z,92.70
2019-05-09T16:52:14.585Z,91.90
2019-05-09T16:58:18.875Z,91.50
2019-05-09T17:01:09.414Z,90.30
2019-05-09T17:03:58.498Z,90.10
2019-05-09T17:06:49.462Z,90.80
2019-05-09T17:09:58.290Z,90.90
2019-05-09T17:12:47.859Z,91.20
2019-05-09T17:15:38.937Z,90.60
2019-05-09T17:18:28.345Z,90.50
2019-05-09T17:21:37.657Z,90.80
2019-05-09T17:24:29.836Z,91.00
2019-05-09T17:27:19.071Z,91.40
2019-05-09T17:30:08.679Z,91.10
2019-05-09T17:32:40.206Z,91.10
2019-05-09T17:35:21.479Z,91.60
2019-05-09T17:38:03.035Z,92.10
2019-05-09T17:40:44.778Z,92.20
2019-05-09T17:43:27.835Z,92.70
2019-05-09T17:46:09.650Z,93.50
2019-05-09T17:48:51.126Z,93.90
2019-05-09T17:51:35.864Z,94.10
2019-05-09T17:54:14.817Z,94.70
2019-05-09T17:56:57.301Z,94.90
2019-05-09T17:59:39.398Z,95.70
2019-05-09T18:02:20.307Z,95.80
2019-05-09T18:05:02.005Z,96.10
2019-05-09T18:07:43.390Z,96.70
2019-05-09T18:13:08.006Z,96.90
2019-05-09T18:15:48.425Z,96.50
2019-05-09T18:21:28.287Z,96.00
2019-05-09T18:24:17.680Z,96.50
2019-05-09T18:27:07.649Z,97.00
2019-05-09T18:29:58.315Z,97.10
2019-05-09T18:36:05.799Z,97.60
2019-05-09T18:38:55.211Z,97.90
2019-05-09T18:41:44.368Z,98.20
2019-05-09T18:44:33.995Z,98.30
2019-05-09T18:47:15.150Z,98.70
2019-05-09T18:49:56.634Z,99.40
2019-05-09T18:52:26.514Z,99.60
2019-05-09T18:55:16.012Z,99.90
2019-05-09T18:58:05.552Z,99.90
2019-05-09T19:00:54.886Z,99.90
2019-05-09T19:03:43.627Z,99.90
2019-05-09T19:06:32.411Z,99.90
2019-05-09T19:09:21.608Z,99.90
2019-05-09T19:12:10.820Z,99.90
2019-05-09T19:18:29.091Z,99.90
2019-05-09T19:24:31.442Z,99.90
2019-05-09T19:27:20.215Z,99.90
2019-05-09T19:30:09.523Z,99.90
2019-05-09T19:32:58.266Z,99.90
2019-05-09T19:35:47.042Z,99.90
2019-05-09T19:38:35.778Z,99.90
2019-05-09T19:41:24.515Z,99.90
2019-05-09T19:44:13.802Z,99.90
2019-05-09T19:46:55.333Z,99.90
2019-05-09T19:49:36.806Z,99.90
2019-05-09T19:52:18.182Z,99.90
2019-05-09T19:54:59.626Z,99.90
2019-05-09T19:57:41.230Z,99.90
2019-05-09T20:00:23.326Z,99.90
2019-05-09T20:03:04.597Z,99.90
2019-05-09T20:05:46.175Z,99.90
2019-05-09T20:08:27.831Z,99.90
2019-05-09T20:11:27.966Z,99.90
2019-05-09T20:14:12.863Z,99.90
2019-05-09T20:16:56.012Z,99.90
2019-05-09T20:19:37.806Z,99.90
2019-05-09T20:22:19.990Z,99.90
2019-05-09T20:24:56.752Z,99.90
2019-05-09T20:30:41.099Z,99.90
2019-05-09T20:33:30.015Z,99.90
2019-05-09T20:36:19.110Z,99.90
2019-05-09T20:39:09.317Z,99.90
2019-05-09T20:41:59.636Z,99.90
2019-05-09T20:44:51.784Z,99.90
2019-05-09T20:47:33.907Z,99.90
2019-05-09T20:50:15.384Z,99.90
2019-05-09T20:53:09.285Z,99.90
2019-05-09T20:55:40.842Z,99.90
2019-05-09T20:58:12.849Z,99.90
2019-05-09T21:01:02.872Z,99.90
2019-05-09T21:04:00.282Z,99.90
2019-05-09T21:06:43.982Z,99.90
2019-05-09T21:09:35.971Z,99.90
2019-05-09T21:12:25.153Z,99.90
2019-05-09T21:15:15.117Z,99.90
2019-05-09T21:20:59.867Z,99.90
2019-05-09T21:26:49.418Z,99.90
2019-05-09T21:29:39.050Z,99.90
2019-05-09T21:32:46.652Z,99.90
2019-05-09T21:35:19.903Z,99.90
2019-05-09T21:38:09.377Z,99.90
2019-05-09T21:40:58.173Z,99.90
2019-05-09T21:43:46.982Z,99.90
2019-05-09T21:46:28.609Z,99.90
2019-05-09T21:49:10.437Z,99.90
2019-05-09T21:51:51.659Z,99.90
2019-05-09T21:54:33.034Z,99.90
2019-05-09T21:57:14.621Z,99.90
2019-05-09T21:59:56.207Z,99.90
2019-05-09T22:02:37.374Z,99.90
2019-05-09T22:05:18.832Z,99.90
2019-05-09T22:08:00.374Z,99.90
2019-05-09T22:10:42.099Z,99.90
2019-05-09T22:13:26.326Z,99.90
2019-05-09T22:16:07.586Z,99.90
2019-05-09T22:18:49.594Z,99.90
2019-05-09T22:24:17.516Z,99.90
2019-05-09T22:26:58.770Z,99.90
2019-05-09T22:29:40.862Z,99.90
2019-05-09T22:32:22.294Z,99.90
2019-05-09T22:35:04.005Z,99.90
2019-05-09T22:37:45.688Z,99.90
2019-05-09T22:40:27.254Z,99.90
2019-05-09T22:43:08.714Z,99.90
2019-05-09T22:45:38.969Z,99.90
2019-05-09T22:48:28.987Z,99.90
2019-05-09T22:51:18.145Z,99.90
2019-05-09T22:54:12.892Z,99.90
2019-05-09T22:56:57.304Z,99.90
2019-05-09T22:59:27.086Z,99.90
2019-05-09T23:02:15.854Z,99.90
2019-05-09T23:05:04.759Z,99.90
2019-05-09T23:07:53.693Z,99.90
2019-05-09T23:10:42.478Z,99.90
2019-05-09T23:16:42.569Z,99.90
2019-05-09T23:19:50.777Z,99.90
2019-05-09T23:22:39.894Z,99.90
2019-05-09T23:25:29.080Z,99.90
2019-05-09T23:28:18.987Z,99.90
2019-05-09T23:34:05.498Z,99.90
2019-05-09T23:36:54.742Z,99.90
2019-05-09T23:39:45.795Z,99.90
2019-05-09T23:42:34.598Z,99.90
2019-05-09T23:45:23.678Z,99.90
2019-05-09T23:48:04.817Z,99.90
2019-05-09T23:50:46.300Z,99.90
2019-05-09T23:53:31.766Z,99.90
2019-05-09T23:56:31.907Z,99.90
2019-05-09T23:59:32.126Z,99.90
